Time;durP1;ratioP1;P1;durP2;ratioP2;P2;SDS_P1;SDS_P2;PMS_P1;PMS_P2;Temp;Humidity;BMP_temperature;BMP_pressure;BME280_temperature;BME280_humidity;BME280_pressure;Samples;Min_cycle;Max_cycle;Signal;HPM_P1;HPM_P2
2022/08/21 00:00:21;;;;;;;;;;;;;;;24.95;99.88;99052.28;5087850;27;19916;-88
2022/08/21 00:02:48;;;;;;;;;;;;;;;24.91;100.00;99051.75;5104060;27;19959;-88
2022/08/21 00:05:14;;;;;;;;;;;;;;;24.80;100.00;99051.88;5101949;27;20502;-88
2022/08/21 00:07:39;;;;;;;;;;;;;;;24.96;100.00;99052.16;5100731;27;20057;-88
2022/08/21 00:10:05;;;;;;;;;;;;;;;24.88;100.00;99044.09;5084960;28;19969;-88
2022/08/21 00:12:30;;;;;;;;;;;;;;;24.91;100.00;99046.47;5085458;27;19916;-88
2022/08/21 00:14:56;;;;;;;;;;;;;;;24.95;100.00;99050.50;5104930;27;20291;-88
2022/08/21 00:17:22;;;;;;;;;;;;;;;24.91;100.00;99049.09;5103030;27;19919;-88
2022/08/21 00:19:47;;;;;;;;;;;;;;;24.96;100.00;99052.16;5086559;28;19939;-88
2022/08/21 00:22:13;;;;;;;;;;;;;;;24.84;100.00;99048.00;5079086;28;19923;-88
2022/08/21 00:24:38;;;;;;;;;;;;;;;24.77;100.00;99052.13;5098761;27;19949;-88
2022/08/21 00:27:05;;;;;;;;;;;;;;;25.03;100.00;99045.34;5101352;27;19924;-88
2022/08/21 00:29:31;;;;;;;;;;;;;;;24.95;100.00;99047.88;5118152;27;19912;-88
2022/08/21 00:31:56;;;;;;;;;;;;;;;24.89;100.00;99053.69;5104250;28;19918;-88
2022/08/21 00:34:21;;;;;;;;;;;;;;;24.71;100.00;99057.97;5084345;27;20326;-88
2022/08/21 00:36:47;;;;;;;;;;;;;;;24.74;100.00;99052.41;5099950;28;19935;-88
2022/08/21 00:39:12;;;;;;;;;;;;;;;24.98;100.00;99052.84;5113744;27;19942;-88
2022/08/21 00:41:38;;;;;;;;;;;;;;;24.98;100.00;99044.94;5117270;27;20619;-88
2022/08/21 00:44:03;;;;;;;;;;;;;;;24.69;100.00;99041.47;5104768;27;20064;-88
2022/08/21 00:46:29;;;;;;;;;;;;;;;24.90;100.00;99041.34;5118350;27;20635;-88
2022/08/21 00:48:55;;;;;;;;;;;;;;;24.92;100.00;99034.94;5090753;27;19964;-88
2022/08/21 00:51:23;;;;;;;;;;;;;;;25.00;100.00;99037.72;5116379;27;19912;-88
2022/08/21 00:53:49;;;;;;;;;;;;;;;24.88;100.00;99033.56;5094786;28;20018;-88
2022/08/21 00:56:14;;;;;;;;;;;;;;;24.49;100.00;99036.19;5107112;27;19916;-88
2022/08/21 00:58:39;;;;;;;;;;;;;;;24.73;100.00;99034.97;5111281;28;20361;-88
2022/08/21 01:01:05;;;;;;;;;;;;;;;24.77;100.00;99039.81;5088836;28;19916;-88
2022/08/21 01:03:31;;;;;;;;;;;;;;;24.89;100.00;99035.25;5118504;27;19990;-88
2022/08/21 01:05:56;;;;;;;;;;;;;;;24.75;100.00;99039.13;5111805;27;19911;-88
2022/08/21 01:08:21;;;;;;;;;;;;;;;24.63;100.00;99041.06;5108221;27;19978;-88
2022/08/21 01:10:47;;;;;;;;;;;;;;;24.63;100.00;99030.53;5092285;27;19915;-88
2022/08/21 01:13:13;;;;;;;;;;;;;;;24.67;100.00;99025.81;5112367;28;19912;-88
2022/08/21 01:15:41;;;;;;;;;;;;;;;24.68;100.00;99026.63;5094214;28;19911;-88
2022/08/21 01:18:07;;;;;;;;;;;;;;;24.65;100.00;99032.19;5100652;28;19919;-88
2022/08/21 01:20:36;;;;;;;;;;;;;;;24.68;100.00;99037.16;5085602;28;19916;-88
2022/08/21 01:23:02;;;;;;;;;;;;;;;24.66;100.00;99028.59;5115893;28;19998;-88
2022/08/21 01:25:28;;;;;;;;;;;;;;;24.56;100.00;99036.47;5087284;28;19928;-88
2022/08/21 01:27:53;;;;;;;;;;;;;;;24.61;100.00;99032.47;5095156;28;19935;-88
2022/08/21 01:30:21;;;;;;;;;;;;;;;24.41;100.00;99028.13;5100621;28;19995;-88
2022/08/21 01:32:46;;;;;;;;;;;;;;;24.36;100.00;99035.59;5097736;28;19966;-88
2022/08/21 01:35:11;;;;;;;;;;;;;;;23.98;100.00;99039.78;5114065;28;19919;-88
2022/08/21 01:37:37;;;;;;;;;;;;;;;24.15;100.00;99030.41;5100030;28;19912;-88
2022/08/21 01:40:03;;;;;;;;;;;;;;;24.09;100.00;99037.06;5094803;28;19920;-88
2022/08/21 01:42:28;;;;;;;;;;;;;;;24.18;100.00;99046.78;5111418;28;19916;-88
2022/08/21 01:44:54;;;;;;;;;;;;;;;24.22;100.00;99047.31;5101749;28;19923;-88
2022/08/21 01:47:19;;;;;;;;;;;;;;;23.88;100.00;99046.81;5085051;28;19922;-88
2022/08/21 01:49:44;;;;;;;;;;;;;;;23.86;100.00;99044.31;5084253;28;20360;-88
2022/08/21 01:52:11;;;;;;;;;;;;;;;23.84;100.00;99040.16;5083115;28;19972;-88
2022/08/21 01:54:36;;;;;;;;;;;;;;;24.06;100.00;99039.13;5084125;28;19915;-88
2022/08/21 01:57:02;;;;;;;;;;;;;;;24.05;100.00;99040.09;5098724;28;20264;-88
2022/08/21 01:59:27;;;;;;;;;;;;;;;23.74;100.00;99040.06;5084551;28;19924;-88
2022/08/21 02:01:54;;;;;;;;;;;;;;;23.78;100.00;99044.97;5074914;28;20303;-88
2022/08/21 02:04:19;;;;;;;;;;;;;;;23.85;100.00;99045.28;5111199;27;19918;-88
2022/08/21 02:06:44;;;;;;;;;;;;;;;23.89;100.00;99045.84;5096637;28;19915;-89
2022/08/21 02:09:11;;;;;;;;;;;;;;;23.96;100.00;99037.28;5090275;28;19924;-88
2022/08/21 02:11:40;;;;;;;;;;;;;;;24.20;100.00;99033.50;5069120;28;19916;-88
2022/08/21 02:14:05;;;;;;;;;;;;;;;24.19;100.00;99037.91;5070955;28;20399;-89
2022/08/21 02:16:31;;;;;;;;;;;;;;;24.12;100.00;99038.59;5075361;28;20002;-89
2022/08/21 02:18:56;;;;;;;;;;;;;;;24.21;100.00;99027.25;5074380;28;20490;-89
2022/08/21 02:21:21;;;;;;;;;;;;;;;24.21;100.00;99030.72;5079911;28;19963;-88
2022/08/21 02:23:47;;;;;;;;;;;;;;;24.31;100.00;99025.44;5108159;28;19916;-88
2022/08/21 02:26:12;;;;;;;;;;;;;;;24.41;100.00;99025.50;5098392;27;20036;-88
2022/08/21 02:28:37;;;;;;;;;;;;;;;24.49;100.00;99022.19;5092637;27;19926;-88
2022/08/21 02:31:03;;;;;;;;;;;;;;;24.28;100.00;99025.75;5098059;27;19938;-88
2022/08/21 02:33:28;;;;;;;;;;;;;;;24.28;100.00;99022.28;5113315;27;19924;-88
2022/08/21 02:35:54;;;;;;;;;;;;;;;24.40;100.00;99019.41;5099240;28;19927;-88
2022/08/21 02:38:21;;;;;;;;;;;;;;;24.25;100.00;99022.56;5078264;28;19923;-88
2022/08/21 02:40:46;;;;;;;;;;;;;;;24.36;100.00;99019.81;5100334;27;19938;-89
2022/08/21 02:43:12;;;;;;;;;;;;;;;24.36;100.00;99014.53;5080659;27;20431;-88
2022/08/21 02:45:37;;;;;;;;;;;;;;;24.42;100.00;99014.81;5094098;27;19915;-88
2022/08/21 02:48:04;;;;;;;;;;;;;;;24.25;100.00;99025.19;5098461;27;20002;-88
2022/08/21 02:50:33;;;;;;;;;;;;;;;24.03;100.00;99016.53;5093101;27;19912;-88
2022/08/21 02:52:59;;;;;;;;;;;;;;;24.20;100.00;99013.28;5097454;28;20310;-88
2022/08/21 02:55:26;;;;;;;;;;;;;;;24.00;100.00;99027.34;5082362;27;19919;-88
2022/08/21 02:57:52;;;;;;;;;;;;;;;24.08;100.00;99022.22;5099283;27;20060;-88
2022/08/21 03:00:17;;;;;;;;;;;;;;;24.38;100.00;99009.94;5100583;27;20432;-88
2022/08/21 03:02:45;;;;;;;;;;;;;;;24.34;100.00;99013.84;5080681;27;19915;-88
2022/08/21 03:05:11;;;;;;;;;;;;;;;24.49;100.00;99009.84;5095610;27;19922;-88
2022/08/21 03:07:37;;;;;;;;;;;;;;;24.39;100.00;99011.63;5096224;27;19916;-88
2022/08/21 03:10:03;;;;;;;;;;;;;;;24.39;100.00;99006.38;5085560;28;20433;-87
2022/08/21 03:12:28;;;;;;;;;;;;;;;24.29;100.00;99001.09;5087183;27;19915;-88
2022/08/21 03:14:53;;;;;;;;;;;;;;;24.40;100.00;99002.75;5078806;28;20439;-88
2022/08/21 03:17:19;;;;;;;;;;;;;;;24.32;100.00;98997.34;5082064;27;19996;-88
2022/08/21 03:19:44;;;;;;;;;;;;;;;24.38;100.00;99000.28;5097207;27;20479;-88
2022/08/21 03:22:09;;;;;;;;;;;;;;;24.40;100.00;98997.50;5071511;28;20404;-88
2022/08/21 03:24:35;;;;;;;;;;;;;;;24.33;100.00;99002.47;5078399;27;19965;-88
2022/08/21 03:27:00;;;;;;;;;;;;;;;24.20;100.00;99005.38;5100327;27;20325;-88
2022/08/21 03:29:26;;;;;;;;;;;;;;;24.36;100.00;99001.38;5113272;27;19954;-88
2022/08/21 03:31:53;;;;;;;;;;;;;;;24.43;100.00;98991.97;5080218;28;20029;-88
2022/08/21 03:34:19;;;;;;;;;;;;;;;24.50;100.00;98997.56;5077529;27;20368;-88
2022/08/21 03:36:44;;;;;;;;;;;;;;;24.43;100.00;99005.13;5079493;28;19959;-88
2022/08/21 03:39:09;;;;;;;;;;;;;;;24.45;100.00;98999.72;5073164;28;19924;-88
2022/08/21 03:41:35;;;;;;;;;;;;;;;24.53;100.00;98997.25;5101806;27;19959;-88
2022/08/21 03:44:00;;;;;;;;;;;;;;;24.48;100.00;99000.31;5077569;27;19915;-88
2022/08/21 03:46:25;;;;;;;;;;;;;;;24.53;100.00;98998.09;5083026;27;19965;-89
2022/08/21 03:48:52;;;;;;;;;;;;;;;24.42;100.00;98995.56;5096325;27;19919;-88
2022/08/21 03:51:20;;;;;;;;;;;;;;;24.58;100.00;99001.13;5072161;27;19915;-88
2022/08/21 03:53:45;;;;;;;;;;;;;;;24.41;100.00;98999.16;5085502;28;19912;-88
2022/08/21 03:56:10;;;;;;;;;;;;;;;24.52;100.00;98991.16;5078443;27;19923;-88
2022/08/21 03:58:36;;;;;;;;;;;;;;;24.33;100.00;99002.47;5099227;27;19916;-88
2022/08/21 04:01:01;;;;;;;;;;;;;;;24.43;100.00;98999.88;5080207;27;19927;-88
2022/08/21 04:03:27;;;;;;;;;;;;;;;24.38;100.00;99009.94;5076510;27;19978;-88
2022/08/21 04:05:52;;;;;;;;;;;;;;;24.41;100.00;99005.25;5095109;27;19935;-88
2022/08/21 04:08:18;;;;;;;;;;;;;;;24.39;100.00;99007.19;5102702;27;19923;-88
2022/08/21 04:10:44;;;;;;;;;;;;;;;24.43;100.00;99013.03;5097295;27;19916;-88
2022/08/21 04:13:09;;;;;;;;;;;;;;;24.36;100.00;99007.47;5063843;28;20490;-88
2022/08/21 04:15:35;;;;;;;;;;;;;;;24.28;100.00;99014.38;5078542;27;19977;-88
2022/08/21 04:18:00;;;;;;;;;;;;;;;24.30;100.00;99007.19;5075117;27;19916;-88
2022/08/21 04:20:26;;;;;;;;;;;;;;;24.15;100.00;99015.47;5079177;28;19919;-88
2022/08/21 04:22:54;;;;;;;;;;;;;;;24.25;100.00;99012.88;5095138;27;20002;-88
2022/08/21 04:25:20;;;;;;;;;;;;;;;24.15;100.00;99022.53;5076757;28;19995;-88
2022/08/21 04:27:46;;;;;;;;;;;;;;;23.75;100.00;99024.22;5076840;27;20443;-88
2022/08/21 04:30:12;;;;;;;;;;;;;;;23.93;100.00;99026.22;5111434;27;19962;-88
2022/08/21 04:32:38;;;;;;;;;;;;;;;24.12;100.00;99021.00;5078186;27;20010;-88
2022/08/21 04:35:05;;;;;;;;;;;;;;;24.03;100.00;99027.06;5096138;27;20371;-88
2022/08/21 04:37:30;;;;;;;;;;;;;;;24.13;100.00;99025.31;5078525;27;19965;-88
2022/08/21 04:39:59;;;;;;;;;;;;;;;23.92;100.00;99030.63;5079403;28;20351;-88
2022/08/21 04:42:25;;;;;;;;;;;;;;;24.06;100.00;99028.59;5081160;27;19951;-88
2022/08/21 04:44:50;;;;;;;;;;;;;;;24.09;100.00;99029.16;5070120;28;19915;-88
2022/08/21 04:47:16;;;;;;;;;;;;;;;23.92;100.00;99029.78;5078605;27;19919;-88
2022/08/21 04:49:42;;;;;;;;;;;;;;;23.98;100.00;99040.63;5079603;28;19919;-88
2022/08/21 04:52:07;;;;;;;;;;;;;;;23.80;100.00;99037.78;5095078;28;19965;-88
2022/08/21 04:54:32;;;;;;;;;;;;;;;23.67;100.00;99039.75;5076250;28;19973;-88
2022/08/21 04:57:03;;;;;;;;;;;;;;;23.52;100.00;99043.72;5082946;27;19919;-88
2022/08/21 04:59:30;;;;;;;;;;;;;;;23.65;100.00;99044.34;5095078;28;19920;-88
2022/08/21 05:01:56;;;;;;;;;;;;;;;23.77;100.00;99034.59;5096516;27;19916;-89
2022/08/21 05:04:25;;;;;;;;;;;;;;;23.95;100.00;99046.16;5109534;27;20299;-88
2022/08/21 05:06:50;;;;;;;;;;;;;;;23.90;100.00;99047.50;5112220;27;19939;-88
2022/08/21 05:09:16;;;;;;;;;;;;;;;23.98;100.00;99045.06;5077419;27;20379;-88
2022/08/21 05:11:42;;;;;;;;;;;;;;;23.91;100.00;99038.66;5081704;28;20178;-88
2022/08/21 05:14:11;;;;;;;;;;;;;;;23.95;100.00;99047.97;5078362;28;19912;-88
2022/08/21 05:16:36;;;;;;;;;;;;;;;23.70;100.00;99046.59;5087262;27;20379;-88
2022/08/21 05:19:02;;;;;;;;;;;;;;;23.58;100.00;99046.66;5112082;27;19961;-88
2022/08/21 05:21:27;;;;;;;;;;;;;;;23.20;100.00;99049.91;5074370;28;19942;-88
2022/08/21 05:23:55;;;;;;;;;;;;;;;23.82;100.00;99042.09;5069350;28;20039;-88
2022/08/21 05:26:20;;;;;;;;;;;;;;;23.99;100.00;99041.44;5076960;28;20525;-88
2022/08/21 05:28:46;;;;;;;;;;;;;;;24.14;100.00;99040.13;5079875;28;19916;-88
2022/08/21 05:31:11;;;;;;;;;;;;;;;23.79;100.00;99041.41;5075419;28;20303;-88
2022/08/21 05:33:36;;;;;;;;;;;;;;;23.58;100.00;99048.44;5089797;28;19923;-88
2022/08/21 05:36:02;;;;;;;;;;;;;;;23.82;100.00;99045.56;5072436;28;20086;-88
2022/08/21 05:38:28;;;;;;;;;;;;;;;23.45;100.00;99058.34;5096814;28;19945;-89
2022/08/21 05:40:53;;;;;;;;;;;;;;;23.29;100.00;99051.75;5102816;28;19915;-89
2022/08/21 05:43:19;;;;;;;;;;;;;;;23.21;100.00;99053.34;5091413;28;20005;-90
2022/08/21 05:45:44;;;;;;;;;;;;;;;23.59;100.00;99050.94;5090853;28;19923;-89
2022/08/21 05:48:11;;;;;;;;;;;;;;;23.57;100.00;99052.03;5091372;28;19915;-89
2022/08/21 05:50:37;;;;;;;;;;;;;;;23.27;100.00;99051.06;5078154;28;19923;-89
2022/08/21 05:53:03;;;;;;;;;;;;;;;23.27;100.00;99056.31;5092649;28;19922;-88
2022/08/21 05:55:28;;;;;;;;;;;;;;;23.91;100.00;99043.94;5073653;28;19916;-89
2022/08/21 05:57:54;;;;;;;;;;;;;;;24.04;100.00;99043.69;5070647;28;19955;-88
2022/08/21 06:00:22;;;;;;;;;;;;;;;24.11;100.00;99047.47;5088497;27;20392;-88
2022/08/21 06:02:48;;;;;;;;;;;;;;;23.60;100.00;99049.16;5109022;27;20817;-89
2022/08/21 06:05:13;;;;;;;;;;;;;;;23.32;100.00;99054.13;5078408;27;19944;-89
2022/08/21 06:07:39;;;;;;;;;;;;;;;24.25;100.00;99052.34;5078397;27;19920;-89
2022/08/21 06:10:04;;;;;;;;;;;;;;;23.51;100.00;99057.81;5079661;28;20281;-88
2022/08/21 06:12:29;;;;;;;;;;;;;;;24.15;100.00;99052.31;5095636;27;19965;-89
2022/08/21 06:14:55;;;;;;;;;;;;;;;24.37;100.00;99043.34;5109532;27;19915;-88
2022/08/21 06:17:20;;;;;;;;;;;;;;;24.67;100.00;99036.34;5101031;27;19919;-88
2022/08/21 06:19:50;;;;;;;;;;;;;;;25.27;100.00;99038.81;5094953;27;19924;-88
2022/08/21 06:22:15;;;;;;;;;;;;;;;25.37;100.00;99039.63;5088930;27;19915;-89
2022/08/21 06:24:40;;;;;;;;;;;;;;;25.22;100.00;99043.69;5080259;28;19924;-89
2022/08/21 06:27:07;;;;;;;;;;;;;;;25.26;100.00;99037.16;5081160;28;20134;-89
2022/08/21 06:29:32;;;;;;;;;;;;;;;25.96;100.00;99034.19;5094774;27;20601;-90
2022/08/21 06:31:57;;;;;;;;;;;;;;;25.90;100.00;99037.41;5098861;27;20029;-89
2022/08/21 06:34:23;;;;;;;;;;;;;;;25.65;100.00;99034.41;5077322;27;20479;-88
2022/08/21 06:36:48;;;;;;;;;;;;;;;25.41;100.00;99032.28;5076154;27;19980;-88
2022/08/21 06:39:13;;;;;;;;;;;;;;;25.16;100.00;99038.97;5104863;27;19919;-89
2022/08/21 06:41:39;;;;;;;;;;;;;;;24.38;100.00;99047.66;5079724;27;19916;-89
2022/08/21 06:44:04;;;;;;;;;;;;;;;25.21;100.00;99039.41;5082436;27;19949;-88
2022/08/21 06:46:29;;;;;;;;;;;;;;;25.76;100.00;99034.22;5090389;28;19923;-88
2022/08/21 06:48:55;;;;;;;;;;;;;;;25.79;100.00;99031.28;5095409;27;19957;-88
2022/08/21 06:51:20;;;;;;;;;;;;;;;26.47;100.00;99022.19;5074383;27;20787;-88
2022/08/21 06:53:46;;;;;;;;;;;;;;;26.16;100.00;99025.19;5100852;27;19920;-88
2022/08/21 06:56:11;;;;;;;;;;;;;;;26.44;98.68;99018.03;5096564;27;20406;-89
2022/08/21 06:58:36;;;;;;;;;;;;;;;26.50;99.25;99021.88;5078697;27;20428;-89
2022/08/21 07:01:02;;;;;;;;;;;;;;;26.72;98.74;99015.34;5096484;27;19919;-88
2022/08/21 07:03:32;;;;;;;;;;;;;;;27.52;97.64;99017.91;5071770;27;19928;-89
2022/08/21 07:05:58;;;;;;;;;;;;;;;27.20;93.68;99018.53;5070346;28;19912;-88
2022/08/21 07:08:23;;;;;;;;;;;;;;;27.15;95.48;99026.09;5097504;27;19922;-88
2022/08/21 07:10:51;;;;;;;;;;;;;;;27.69;94.69;99009.09;5097200;27;20026;-91
2022/08/21 07:13:19;;;;;;;;;;;;;;;27.12;95.57;99014.84;5076396;28;19916;-89
2022/08/21 07:15:45;;;;;;;;;;;;;;;26.97;94.31;99018.19;5093179;27;20300;-89
2022/08/21 07:18:10;;;;;;;;;;;;;;;27.02;94.28;99016.72;5117638;27;19915;-87
2022/08/21 07:20:36;;;;;;;;;;;;;;;27.82;92.69;99013.91;5084560;27;19959;-90
2022/08/21 07:23:02;;;;;;;;;;;;;;;28.04;91.70;99014.38;5087302;27;20113;-89
2022/08/21 07:25:27;;;;;;;;;;;;;;;28.11;90.18;99016.19;5096600;27;19919;-90
2022/08/21 07:27:53;;;;;;;;;;;;;;;28.31;88.82;99011.44;5085460;27;20452;-89
2022/08/21 07:30:18;;;;;;;;;;;;;;;27.77;90.01;99016.22;5081111;28;19998;-89
2022/08/21 07:32:43;;;;;;;;;;;;;;;28.35;87.19;99010.16;5069685;28;19924;-89
2022/08/21 07:35:09;;;;;;;;;;;;;;;27.35;92.60;99017.00;5077957;27;19970;-89
2022/08/21 07:37:34;;;;;;;;;;;;;;;28.44;87.19;99012.78;5099280;27;20415;-89
2022/08/21 07:40:00;;;;;;;;;;;;;;;28.29;86.16;99016.09;5080001;27;19949;-90
2022/08/21 07:42:25;;;;;;;;;;;;;;;28.13;86.32;99013.41;5086386;27;19949;-90
2022/08/21 07:44:50;;;;;;;;;;;;;;;29.22;84.45;99016.81;5105279;27;19943;-89
2022/08/21 07:47:15;;;;;;;;;;;;;;;28.90;82.61;99014.03;5104022;27;19965;-90
2022/08/21 07:49:41;;;;;;;;;;;;;;;29.23;84.19;99018.50;5098377;28;20276;-89
2022/08/21 07:52:06;;;;;;;;;;;;;;;28.69;81.15;99011.88;5088009;28;19912;-88
2022/08/21 07:54:31;;;;;;;;;;;;;;;28.31;84.86;99014.09;5081315;28;20007;-88
2022/08/21 07:56:57;;;;;;;;;;;;;;;28.63;81.92;99017.00;5093224;27;20674;-87
2022/08/21 07:59:22;;;;;;;;;;;;;;;29.87;75.76;99006.03;5086126;27;19927;-87
2022/08/21 08:01:47;;;;;;;;;;;;;;;29.08;73.12;98997.97;5102067;27;19915;-88
2022/08/21 08:04:14;;;;;;;;;;;;;;;28.52;74.46;99011.00;5082780;27;19927;-88
2022/08/21 08:06:39;;;;;;;;;;;;;;;29.66;68.61;99008.44;5078751;27;19955;-89
2022/08/21 08:09:05;;;;;;;;;;;;;;;29.53;71.62;98998.34;5085325;28;19962;-87
2022/08/21 08:11:30;;;;;;;;;;;;;;;29.48;72.93;99011.31;5078098;28;19911;-87
2022/08/21 08:13:57;;;;;;;;;;;;;;;29.12;65.53;99001.91;5078074;27;19916;-88
2022/08/21 08:16:22;;;;;;;;;;;;;;;29.05;70.26;99011.50;5080514;28;20022;-87
2022/08/21 08:18:48;;;;;;;;;;;;;;;29.83;63.85;98999.41;5083368;28;20061;-87
2022/08/21 08:21:17;;;;;;;;;;;;;;;29.68;64.55;99001.16;5108163;28;19920;-87
2022/08/21 08:23:43;;;;;;;;;;;;;;;29.19;60.58;98997.63;5081953;27;19919;-89
2022/08/21 08:26:09;;;;;;;;;;;;;;;28.89;62.39;98995.63;5095325;27;20272;-88
2022/08/21 08:28:34;;;;;;;;;;;;;;;30.32;59.13;98991.22;5077512;27;19924;-88
2022/08/21 08:31:00;;;;;;;;;;;;;;;29.21;64.66;98999.25;5098166;27;20004;-88
2022/08/21 08:33:25;;;;;;;;;;;;;;;29.76;58.89;98998.44;5089131;28;20460;-88
2022/08/21 08:35:50;;;;;;;;;;;;;;;30.51;56.23;98989.09;5077132;28;20437;-88
2022/08/21 08:38:18;;;;;;;;;;;;;;;31.03;51.00;98993.66;5096702;28;20255;-88
2022/08/21 08:40:46;;;;;;;;;;;;;;;30.56;57.79;98994.69;5075693;27;19924;-88
2022/08/21 08:43:13;;;;;;;;;;;;;;;31.03;54.13;98998.97;5109185;27;19951;-88
2022/08/21 08:45:39;;;;;;;;;;;;;;;31.48;54.75;98993.75;5092249;27;19946;-87
2022/08/21 08:48:05;;;;;;;;;;;;;;;32.13;49.50;98994.75;5074695;28;19923;-87
2022/08/21 08:50:33;;;;;;;;;;;;;;;31.09;54.17;99000.06;5077475;27;20006;-87
2022/08/21 08:53:04;;;;;;;;;;;;;;;30.70;57.87;98993.94;5094664;27;20325;-88
2022/08/21 08:55:36;;;;;;;;;;;;;;;30.27;58.29;98990.91;5094554;28;20092;-88
2022/08/21 08:58:02;;;;;;;;;;;;;;;30.41;62.66;98990.16;5112689;27;20316;-86
2022/08/21 09:00:27;;;;;;;;;;;;;;;30.01;61.57;98991.19;5092770;28;20061;-86
2022/08/21 09:02:55;;;;;;;;;;;;;;;27.67;70.62;98997.00;5097081;27;20014;-89
2022/08/21 09:05:24;;;;;;;;;;;;;;;29.10;69.72;98988.03;5095788;27;20380;-88
2022/08/21 09:08:02;;;;;;;;;;;;;;;31.72;57.83;98984.63;5101130;27;20006;-89
2022/08/21 09:10:36;;;;;;;;;;;;;;;30.33;56.45;98984.06;5100066;27;20084;-88
2022/08/21 09:13:04;;;;;;;;;;;;;;;28.47;69.16;98991.31;5082864;27;19958;-87
2022/08/21 09:15:49;;;;;;;;;;;;;;;29.91;64.19;98980.78;5111139;27;19915;-88
2022/08/21 09:18:34;;;;;;;;;;;;;;;31.44;60.63;98977.28;5081087;28;19920;-88
2022/08/21 09:21:09;;;;;;;;;;;;;;;31.11;59.16;98972.31;5112095;27;19955;-87
2022/08/21 09:23:53;;;;;;;;;;;;;;;30.34;55.90;98967.94;5097141;27;20003;-88
2022/08/21 09:26:26;;;;;;;;;;;;;;;31.49;60.15;98969.56;5094545;27;19916;-87
2022/08/21 09:28:53;;;;;;;;;;;;;;;30.55;56.55;98966.47;5094120;28;19926;-88
2022/08/21 09:31:25;;;;;;;;;;;;;;;29.54;63.27;98976.13;5092773;28;19915;-88
2022/08/21 09:33:56;;;;;;;;;;;;;;;31.50;59.12;98973.06;5079321;28;19967;-88
2022/08/21 09:36:45;;;;;;;;;;;;;;;31.43;60.56;98972.97;5079096;28;19919;-88
2022/08/21 09:39:11;;;;;;;;;;;;;;;30.30;56.86;98974.63;5087848;28;19922;-88
2022/08/21 09:41:37;;;;;;;;;;;;;;;32.08;54.35;98958.84;5096358;28;19942;-87
2022/08/21 09:44:03;;;;;;;;;;;;;;;32.81;50.59;98957.88;5094211;28;19947;-88
2022/08/21 09:46:29;;;;;;;;;;;;;;;33.38;46.31;98953.34;5080761;28;19962;-88
2022/08/21 09:48:55;;;;;;;;;;;;;;;34.09;45.43;98951.16;5114120;28;19922;-87
2022/08/21 09:51:24;;;;;;;;;;;;;;;32.70;42.03;98946.72;5081549;28;20006;-87
2022/08/21 09:54:13;;;;;;;;;;;;;;;33.66;43.79;98951.44;5077812;28;19912;-88
2022/08/21 09:59:39;;;;;;;;;;;;;;;33.56;41.62;98948.31;5089011;28;19926;-88
2022/08/21 10:02:23;;;;;;;;;;;;;;;32.76;43.04;98939.81;5093883;28;19923;-89
2022/08/21 10:04:52;;;;;;;;;;;;;;;34.35;40.12;98941.59;5084877;27;19989;-89
2022/08/21 10:07:19;;;;;;;;;;;;;;;33.65;41.46;98933.78;5089722;28;20729;-88
2022/08/21 10:09:45;;;;;;;;;;;;;;;33.38;39.36;98935.47;5102162;28;19942;-89
2022/08/21 10:12:10;;;;;;;;;;;;;;;34.17;40.34;98931.50;5075906;28;20361;-89
2022/08/21 10:14:54;;;;;;;;;;;;;;;35.23;41.13;98935.97;5089620;28;20342;-89
2022/08/21 10:17:25;;;;;;;;;;;;;;;32.18;41.95;98936.38;5089361;28;20079;-89
2022/08/21 10:20:04;;;;;;;;;;;;;;;34.00;39.76;98924.84;5109853;28;19920;-89
2022/08/21 10:22:32;;;;;;;;;;;;;;;32.21;46.41;98934.19;5093035;28;19919;-89
2022/08/21 10:25:01;;;;;;;;;;;;;;;33.71;41.46;98930.31;5089560;28;20016;-89
2022/08/21 10:27:42;;;;;;;;;;;;;;;32.97;41.50;98922.09;5081341;28;20354;-90
2022/08/21 10:30:32;;;;;;;;;;;;;;;33.84;40.78;98926.03;5081243;28;19968;-89
2022/08/21 10:33:10;;;;;;;;;;;;;;;35.09;37.36;98918.28;5097909;27;19915;-89
2022/08/21 10:35:45;;;;;;;;;;;;;;;33.64;39.00;98917.94;5087071;28;20026;-90
2022/08/21 10:38:19;;;;;;;;;;;;;;;34.66;37.83;98908.06;5097524;28;19915;-89
2022/08/21 10:40:48;;;;;;;;;;;;;;;34.77;38.28;98915.47;5093836;28;19949;-88
2022/08/21 10:43:32;;;;;;;;;;;;;;;33.89;41.20;98912.88;5093948;28;20384;-89
2022/08/21 10:45:59;;;;;;;;;;;;;;;34.75;38.30;98913.00;5102390;28;19915;-90
2022/08/21 10:48:29;;;;;;;;;;;;;;;33.63;40.96;98914.47;5090205;27;20220;-89
2022/08/21 10:51:12;;;;;;;;;;;;;;;34.57;39.89;98921.63;5068643;27;20391;-90
2022/08/21 10:53:51;;;;;;;;;;;;;;;34.57;36.89;98916.25;5072153;27;19931;-89
2022/08/21 10:56:16;;;;;;;;;;;;;;;32.43;41.93;98913.69;5074730;27;20224;-89
2022/08/21 10:59:00;;;;;;;;;;;;;;;33.22;39.80;98909.94;5086465;27;20418;-90
2022/08/21 11:01:31;;;;;;;;;;;;;;;34.04;40.83;98910.88;5086970;27;19970;-89
2022/08/21 11:04:07;;;;;;;;;;;;;;;34.68;37.96;98908.69;5072105;28;19920;-89
2022/08/21 11:06:33;;;;;;;;;;;;;;;33.75;40.30;98907.50;5084030;27;19919;-86
2022/08/21 11:09:01;;;;;;;;;;;;;;;32.35;47.74;98910.31;5071627;27;20368;-89
2022/08/21 11:11:31;;;;;;;;;;;;;;;31.71;43.46;98913.75;5078310;28;19919;-88
2022/08/21 11:13:58;;;;;;;;;;;;;;;31.30;49.65;98914.25;5087660;27;20469;-90
2022/08/21 11:16:35;;;;;;;;;;;;;;;30.56;51.77;98922.94;5076101;28;19920;-89
2022/08/21 11:19:04;;;;;;;;;;;;;;;32.67;46.25;98907.13;5079776;28;19923;-88
2022/08/21 11:21:34;;;;;;;;;;;;;;;30.48;49.06;98913.19;5112613;27;19927;-87
2022/08/21 11:24:18;;;;;;;;;;;;;;;32.55;51.22;98913.16;5080983;27;20014;-87
2022/08/21 11:27:02;;;;;;;;;;;;;;;35.08;43.35;98909.44;5094869;28;19955;-88
2022/08/21 11:29:30;;;;;;;;;;;;;;;33.20;43.90;98908.50;5094329;27;20418;-88
2022/08/21 11:32:14;;;;;;;;;;;;;;;33.09;45.78;98912.53;5094046;27;19930;-85
2022/08/21 11:34:47;;;;;;;;;;;;;;;32.28;43.77;98905.75;5089994;27;19919;-87
2022/08/21 11:37:14;;;;;;;;;;;;;;;32.67;44.08;98904.44;5104994;27;19922;-87
2022/08/21 11:39:56;;;;;;;;;;;;;;;33.05;42.34;98905.94;5069662;27;19964;-88
2022/08/21 11:42:21;;;;;;;;;;;;;;;33.65;43.46;98907.06;5071842;27;19922;-88
2022/08/21 11:44:53;;;;;;;;;;;;;;;34.32;38.14;98901.88;5107678;27;19954;-88
2022/08/21 11:47:46;;;;;;;;;;;;;;;34.27;37.42;98907.03;5088780;27;19920;-88
2022/08/21 11:50:13;;;;;;;;;;;;;;;32.40;41.73;98906.03;5073502;27;20030;-88
2022/08/21 11:52:40;;;;;;;;;;;;;;;32.66;44.55;98904.63;5071216;28;19989;-89
2022/08/21 11:55:07;;;;;;;;;;;;;;;33.49;40.42;98902.06;5089713;27;19915;-88
2022/08/21 11:57:39;;;;;;;;;;;;;;;33.28;39.63;98895.81;5090195;27;19923;-88
2022/08/21 12:00:08;;;;;;;;;;;;;;;32.60;38.72;98894.75;5071291;27;20010;-89
2022/08/21 12:02:35;;;;;;;;;;;;;;;31.55;39.79;98904.97;5107417;27;19915;-89
2022/08/21 12:05:03;;;;;;;;;;;;;;;32.36;38.30;98899.44;5080836;27;20028;-89
2022/08/21 12:07:30;;;;;;;;;;;;;;;31.56;38.92;98911.91;5071846;27;19924;-89
2022/08/21 12:09:56;;;;;;;;;;;;;;;33.95;37.63;98896.06;5069657;27;19922;-89
2022/08/21 12:12:29;;;;;;;;;;;;;;;34.27;34.74;98897.16;5074288;27;19915;-88
2022/08/21 12:15:05;;;;;;;;;;;;;;;33.85;37.70;98906.28;5089774;27;19923;-88
2022/08/21 12:17:35;;;;;;;;;;;;;;;33.51;36.86;98902.69;5071303;27;20352;-88
2022/08/21 12:20:17;;;;;;;;;;;;;;;33.32;36.71;98901.56;5088847;28;19972;-89
2022/08/21 12:22:47;;;;;;;;;;;;;;;33.83;37.28;98908.38;5090225;27;19997;-88
2022/08/21 12:25:17;;;;;;;;;;;;;;;34.50;33.22;98899.41;5069485;27;19926;-88
2022/08/21 12:28:05;;;;;;;;;;;;;;;35.93;33.30;98892.44;5070814;27;20357;-88
2022/08/21 12:30:35;;;;;;;;;;;;;;;35.70;32.30;98893.81;5077356;27;19960;-89
2022/08/21 12:33:04;;;;;;;;;;;;;;;34.95;32.24;98896.91;5088689;27;19977;-89
2022/08/21 12:35:35;;;;;;;;;;;;;;;36.72;32.50;98891.03;5086591;27;19915;-90
2022/08/21 12:38:02;;;;;;;;;;;;;;;35.45;32.43;98895.56;5079807;27;19912;-92
2022/08/21 12:40:32;;;;;;;;;;;;;;;34.12;32.98;98892.00;5099703;27;19926;-91
2022/08/21 12:42:59;;;;;;;;;;;;;;;36.79;33.09;98890.94;5095457;27;19911;-91
2022/08/21 12:45:36;;;;;;;;;;;;;;;35.73;34.20;98898.72;5097379;27;19996;-91